sensor_id;sensor_type;location;lat;lon;timestamp;P1;P2;P0
64229;PMS5003;50547;49.498;0.092;2022-11-12T00:01:30;24;21;
64229;PMS5003;50547;49.498;0.092;2022-11-12T00:03:58;25;22;
64229;PMS5003;50547;49.498;0.092;2022-11-12T00:06:27;23;20;
64229;PMS5003;50547;49.498;0.092;2022-11-12T00:08:56;22;19;
64229;PMS5003;50547;49.498;0.092;2022-11-12T00:11:25;22;19;
64229;PMS5003;50547;49.498;0.092;2022-11-12T00:13:54;22;19;
64229;PMS5003;50547;49.498;0.092;2022-11-12T00:16:23;22;19;
64229;PMS5003;50547;49.498;0.092;2022-11-12T00:18:52;23;20;
64229;PMS5003;50547;49.498;0.092;2022-11-12T00:21:21;23;20;
64229;PMS5003;50547;49.498;0.092;2022-11-12T00:23:51;23;20;
64229;PMS5003;50547;49.498;0.092;2022-11-12T00:26:17;23;20;
64229;PMS5003;50547;49.498;0.092;2022-11-12T00:28:46;23;20;
64229;PMS5003;50547;49.498;0.092;2022-11-12T00:31:15;23;20;
64229;PMS5003;50547;49.498;0.092;2022-11-12T00:33:44;23;20;
64229;PMS5003;50547;49.498;0.092;2022-11-12T00:36:13;22;19;
64229;PMS5003;50547;49.498;0.092;2022-11-12T00:38:42;22;19;
64229;PMS5003;50547;49.498;0.092;2022-11-12T00:41:11;22;19;
64229;PMS5003;50547;49.498;0.092;2022-11-12T00:43:40;22;19;
64229;PMS5003;50547;49.498;0.092;2022-11-12T00:46:09;22;19;
64229;PMS5003;50547;49.498;0.092;2022-11-12T00:48:38;20;17;
64229;PMS5003;50547;49.498;0.092;2022-11-12T00:51:08;20;17;
64229;PMS5003;50547;49.498;0.092;2022-11-12T00:53:37;20;17;
64229;PMS5003;50547;49.498;0.092;2022-11-12T00:56:06;20;17;
64229;PMS5003;50547;49.498;0.092;2022-11-12T00:58:35;20;17;
64229;PMS5003;50547;49.498;0.092;2022-11-12T01:01:06;21;18;
64229;PMS5003;50547;49.498;0.092;2022-11-12T01:03:36;22;19;
64229;PMS5003;50547;49.498;0.092;2022-11-12T01:06:07;22;19;
64229;PMS5003;50547;49.498;0.092;2022-11-12T01:08:38;21;18;
64229;PMS5003;50547;49.498;0.092;2022-11-12T01:11:07;21;18;
64229;PMS5003;50547;49.498;0.092;2022-11-12T01:13:38;22;19;
64229;PMS5003;50547;49.498;0.092;2022-11-12T01:16:09;22;19;
64229;PMS5003;50547;49.498;0.092;2022-11-12T01:18:40;21;18;
64229;PMS5003;50547;49.498;0.092;2022-11-12T01:21:11;21;18;
64229;PMS5003;50547;49.498;0.092;2022-11-12T01:23:41;22;19;
64229;PMS5003;50547;49.498;0.092;2022-11-12T01:26:11;22;19;
64229;PMS5003;50547;49.498;0.092;2022-11-12T01:28:42;22;19;
64229;PMS5003;50547;49.498;0.092;2022-11-12T01:31:12;22;19;
64229;PMS5003;50547;49.498;0.092;2022-11-12T01:33:44;20;17;
64229;PMS5003;50547;49.498;0.092;2022-11-12T01:36:16;20;17;
64229;PMS5003;50547;49.498;0.092;2022-11-12T01:38:46;21;18;
64229;PMS5003;50547;49.498;0.092;2022-11-12T01:41:16;21;18;
64229;PMS5003;50547;49.498;0.092;2022-11-12T01:44:04;22;19;
64229;PMS5003;50547;49.498;0.092;2022-11-12T01:46:36;21;18;
64229;PMS5003;50547;49.498;0.092;2022-11-12T01:49:13;23;20;
64229;PMS5003;50547;49.498;0.092;2022-11-12T01:51:47;23;20;
64229;PMS5003;50547;49.498;0.092;2022-11-12T01:54:19;23;20;
64229;PMS5003;50547;49.498;0.092;2022-11-12T01:56:50;23;20;
64229;PMS5003;50547;49.498;0.092;2022-11-12T01:59:20;22;19;
64229;PMS5003;50547;49.498;0.092;2022-11-12T02:01:52;22;19;
64229;PMS5003;50547;49.498;0.092;2022-11-12T02:04:22;23;20;
64229;PMS5003;50547;49.498;0.092;2022-11-12T02:06:52;23;20;
64229;PMS5003;50547;49.498;0.092;2022-11-12T02:09:24;23;20;
64229;PMS5003;50547;49.498;0.092;2022-11-12T02:11:54;22;19;
64229;PMS5003;50547;49.498;0.092;2022-11-12T02:14:23;21;18;
64229;PMS5003;50547;49.498;0.092;2022-11-12T02:16:52;22;19;
64229;PMS5003;50547;49.498;0.092;2022-11-12T02:19:21;22;19;
64229;PMS5003;50547;49.498;0.092;2022-11-12T02:21:50;22;19;
64229;PMS5003;50547;49.498;0.092;2022-11-12T02:24:34;22;19;
64229;PMS5003;50547;49.498;0.092;2022-11-12T02:27:04;22;19;
64229;PMS5003;50547;49.498;0.092;2022-11-12T02:29:34;23;20;
64229;PMS5003;50547;49.498;0.092;2022-11-12T02:32:03;22;19;
64229;PMS5003;50547;49.498;0.092;2022-11-12T02:34:33;22;19;
64229;PMS5003;50547;49.498;0.092;2022-11-12T02:37:02;23;20;
64229;PMS5003;50547;49.498;0.092;2022-11-12T02:39:31;23;20;
64229;PMS5003;50547;49.498;0.092;2022-11-12T02:42:00;23;20;
64229;PMS5003;50547;49.498;0.092;2022-11-12T02:44:29;22;19;
64229;PMS5003;50547;49.498;0.092;2022-11-12T02:46:58;23;20;
64229;PMS5003;50547;49.498;0.092;2022-11-12T02:49:27;23;20;
64229;PMS5003;50547;49.498;0.092;2022-11-12T02:51:56;23;20;
64229;PMS5003;50547;49.498;0.092;2022-11-12T02:54:25;23;20;
64229;PMS5003;50547;49.498;0.092;2022-11-12T02:56:54;22;19;
64229;PMS5003;50547;49.498;0.092;2022-11-12T02:59:23;23;20;
64229;PMS5003;50547;49.498;0.092;2022-11-12T03:01:52;23;20;
64229;PMS5003;50547;49.498;0.092;2022-11-12T03:04:21;22;19;
64229;PMS5003;50547;49.498;0.092;2022-11-12T03:06:50;23;20;
64229;PMS5003;50547;49.498;0.092;2022-11-12T03:09:20;22;19;
64229;PMS5003;50547;49.498;0.092;2022-11-12T03:11:49;22;19;
64229;PMS5003;50547;49.498;0.092;2022-11-12T03:14:18;22;19;
64229;PMS5003;50547;49.498;0.092;2022-11-12T03:16:48;22;19;
64229;PMS5003;50547;49.498;0.092;2022-11-12T03:19:17;23;20;
64229;PMS5003;50547;49.498;0.092;2022-11-12T03:21:46;22;19;
64229;PMS5003;50547;49.498;0.092;2022-11-12T03:24:15;22;19;
64229;PMS5003;50547;49.498;0.092;2022-11-12T03:26:44;21;18;
64229;PMS5003;50547;49.498;0.092;2022-11-12T03:29:13;20;17;
64229;PMS5003;50547;49.498;0.092;2022-11-12T03:31:42;20;17;
64229;PMS5003;50547;49.498;0.092;2022-11-12T03:34:11;20;17;
64229;PMS5003;50547;49.498;0.092;2022-11-12T03:36:40;20;17;
64229;PMS5003;50547;49.498;0.092;2022-11-12T03:39:09;22;19;
64229;PMS5003;50547;49.498;0.092;2022-11-12T03:41:38;22;19;
64229;PMS5003;50547;49.498;0.092;2022-11-12T03:44:07;22;19;
64229;PMS5003;50547;49.498;0.092;2022-11-12T03:46:36;22;19;
64229;PMS5003;50547;49.498;0.092;2022-11-12T03:49:05;22;19;
64229;PMS5003;50547;49.498;0.092;2022-11-12T03:51:34;23;20;
64229;PMS5003;50547;49.498;0.092;2022-11-12T03:54:03;23;20;
64229;PMS5003;50547;49.498;0.092;2022-11-12T03:56:32;23;20;
64229;PMS5003;50547;49.498;0.092;2022-11-12T03:59:01;23;20;
64229;PMS5003;50547;49.498;0.092;2022-11-12T04:01:30;23;20;
64229;PMS5003;50547;49.498;0.092;2022-11-12T04:03:59;23;20;
64229;PMS5003;50547;49.498;0.092;2022-11-12T04:06:28;21;18;
64229;PMS5003;50547;49.498;0.092;2022-11-12T04:08:57;21;18;
64229;PMS5003;50547;49.498;0.092;2022-11-12T04:11:26;22;19;
64229;PMS5003;50547;49.498;0.092;2022-11-12T04:13:55;22;19;
64229;PMS5003;50547;49.498;0.092;2022-11-12T04:16:24;22;19;
64229;PMS5003;50547;49.498;0.092;2022-11-12T04:18:54;22;19;
64229;PMS5003;50547;49.498;0.092;2022-11-12T04:21:27;23;20;
64229;PMS5003;50547;49.498;0.092;2022-11-12T04:23:58;23;20;
64229;PMS5003;50547;49.498;0.092;2022-11-12T04:26:27;23;20;
64229;PMS5003;50547;49.498;0.092;2022-11-12T04:28:56;23;20;
64229;PMS5003;50547;49.498;0.092;2022-11-12T04:31:25;23;20;
64229;PMS5003;50547;49.498;0.092;2022-11-12T04:33:54;23;20;
64229;PMS5003;50547;49.498;0.092;2022-11-12T04:36:23;23;20;
64229;PMS5003;50547;49.498;0.092;2022-11-12T04:38:52;22;19;
64229;PMS5003;50547;49.498;0.092;2022-11-12T04:41:21;22;19;
64229;PMS5003;50547;49.498;0.092;2022-11-12T04:43:50;22;19;
64229;PMS5003;50547;49.498;0.092;2022-11-12T04:46:19;22;19;
64229;PMS5003;50547;49.498;0.092;2022-11-12T04:48:48;22;19;
64229;PMS5003;50547;49.498;0.092;2022-11-12T04:51:17;23;20;
64229;PMS5003;50547;49.498;0.092;2022-11-12T04:53:46;24;21;
64229;PMS5003;50547;49.498;0.092;2022-11-12T04:56:15;23;20;
64229;PMS5003;50547;49.498;0.092;2022-11-12T04:58:44;24;21;
64229;PMS5003;50547;49.498;0.092;2022-11-12T05:01:14;25;22;
64229;PMS5003;50547;49.498;0.092;2022-11-12T05:03:43;24;21;
64229;PMS5003;50547;49.498;0.092;2022-11-12T05:06:12;25;22;
64229;PMS5003;50547;49.498;0.092;2022-11-12T05:08:41;24;21;
64229;PMS5003;50547;49.498;0.092;2022-11-12T05:11:10;24;21;
64229;PMS5003;50547;49.498;0.092;2022-11-12T05:13:39;25;22;
64229;PMS5003;50547;49.498;0.092;2022-11-12T05:16:08;24;21;
64229;PMS5003;50547;49.498;0.092;2022-11-12T05:18:37;23;20;
64229;PMS5003;50547;49.498;0.092;2022-11-12T05:21:06;25;22;
64229;PMS5003;50547;49.498;0.092;2022-11-12T05:23:35;24;21;
64229;PMS5003;50547;49.498;0.092;2022-11-12T05:26:04;25;22;
64229;PMS5003;50547;49.498;0.092;2022-11-12T05:28:33;27;23;
64229;PMS5003;50547;49.498;0.092;2022-11-12T05:31:02;25;22;
64229;PMS5003;50547;49.498;0.092;2022-11-12T05:33:31;25;22;
64229;PMS5003;50547;49.498;0.092;2022-11-12T05:36:00;25;22;
64229;PMS5003;50547;49.498;0.092;2022-11-12T05:38:30;25;22;
64229;PMS5003;50547;49.498;0.092;2022-11-12T05:40:59;24;21;
64229;PMS5003;50547;49.498;0.092;2022-11-12T05:43:28;23;20;
64229;PMS5003;50547;49.498;0.092;2022-11-12T05:45:57;23;20;
64229;PMS5003;50547;49.498;0.092;2022-11-12T05:48:26;23;20;
64229;PMS5003;50547;49.498;0.092;2022-11-12T05:50:54;25;22;
64229;PMS5003;50547;49.498;0.092;2022-11-12T05:53:23;26;23;
64229;PMS5003;50547;49.498;0.092;2022-11-12T05:55:53;29;25;
64229;PMS5003;50547;49.498;0.092;2022-11-12T05:58:22;30;26;
64229;PMS5003;50547;49.498;0.092;2022-11-12T06:00:51;31;27;
64229;PMS5003;50547;49.498;0.092;2022-11-12T06:03:20;34;29;
64229;PMS5003;50547;49.498;0.092;2022-11-12T06:05:49;34;29;
64229;PMS5003;50547;49.498;0.092;2022-11-12T06:08:18;32;28;
64229;PMS5003;50547;49.498;0.092;2022-11-12T06:10:48;30;26;
64229;PMS5003;50547;49.498;0.092;2022-11-12T06:13:18;32;28;
64229;PMS5003;50547;49.498;0.092;2022-11-12T06:15:48;31;27;
64229;PMS5003;50547;49.498;0.092;2022-11-12T06:18:18;33;28;
64229;PMS5003;50547;49.498;0.092;2022-11-12T06:20:49;30;26;
64229;PMS5003;50547;49.498;0.092;2022-11-12T06:23:18;30;26;
64229;PMS5003;50547;49.498;0.092;2022-11-12T06:25:47;31;27;
64229;PMS5003;50547;49.498;0.092;2022-11-12T06:28:16;31;27;
64229;PMS5003;50547;49.498;0.092;2022-11-12T06:30:45;30;26;
64229;PMS5003;50547;49.498;0.092;2022-11-12T06:33:14;31;27;
64229;PMS5003;50547;49.498;0.092;2022-11-12T06:35:43;31;27;
64229;PMS5003;50547;49.498;0.092;2022-11-12T06:38:12;31;27;
64229;PMS5003;50547;49.498;0.092;2022-11-12T06:40:41;31;27;
64229;PMS5003;50547;49.498;0.092;2022-11-12T06:43:10;31;27;
64229;PMS5003;50547;49.498;0.092;2022-11-12T06:45:39;31;27;
64229;PMS5003;50547;49.498;0.092;2022-11-12T06:48:08;37;33;
64229;PMS5003;50547;49.498;0.092;2022-11-12T06:50:37;41;38;
64229;PMS5003;50547;49.498;0.092;2022-11-12T06:53:06;40;36;
64229;PMS5003;50547;49.498;0.092;2022-11-12T06:55:35;38;35;
64229;PMS5003;50547;49.498;0.092;2022-11-12T06:58:04;37;33;
64229;PMS5003;50547;49.498;0.092;2022-11-12T07:00:33;36;31;
64229;PMS5003;50547;49.498;0.092;2022-11-12T07:03:04;36;31;
64229;PMS5003;50547;49.498;0.092;2022-11-12T07:05:34;35;30;
64229;PMS5003;50547;49.498;0.092;2022-11-12T07:08:04;35;30;
64229;PMS5003;50547;49.498;0.092;2022-11-12T07:10:33;36;31;
64229;PMS5003;50547;49.498;0.092;2022-11-12T07:13:02;38;35;
64229;PMS5003;50547;49.498;0.092;2022-11-12T07:15:32;51;45;
64229;PMS5003;50547;49.498;0.092;2022-11-12T07:18:01;45;43;
64229;PMS5003;50547;49.498;0.092;2022-11-12T07:20:30;44;43;
64229;PMS5003;50547;49.498;0.092;2022-11-12T07:22:59;42;40;
64229;PMS5003;50547;49.498;0.092;2022-11-12T07:25:28;42;40;
64229;PMS5003;50547;49.498;0.092;2022-11-12T07:27:57;40;36;
64229;PMS5003;50547;49.498;0.092;2022-11-12T07:30:26;41;38;
64229;PMS5003;50547;49.498;0.092;2022-11-12T07:32:56;44;43;
64229;PMS5003;50547;49.498;0.092;2022-11-12T07:35:25;38;35;
64229;PMS5003;50547;49.498;0.092;2022-11-12T07:37:54;35;30;
64229;PMS5003;50547;49.498;0.092;2022-11-12T07:40:35;34;29;
64229;PMS5003;50547;49.498;0.092;2022-11-12T07:51:56;41;38;
64229;PMS5003;50547;49.498;0.092;2022-11-12T07:54:26;42;40;
64229;PMS5003;50547;49.498;0.092;2022-11-12T07:56:55;41;38;
64229;PMS5003;50547;49.498;0.092;2022-11-12T07:59:24;42;40;
64229;PMS5003;50547;49.498;0.092;2022-11-12T08:01:53;42;40;
64229;PMS5003;50547;49.498;0.092;2022-11-12T08:04:38;51;45;
64229;PMS5003;50547;49.498;0.092;2022-11-12T08:07:07;60;53;
64229;PMS5003;50547;49.498;0.092;2022-11-12T08:09:36;44;43;
64229;PMS5003;50547;49.498;0.092;2022-11-12T08:12:06;53;46;
64229;PMS5003;50547;49.498;0.092;2022-11-12T08:14:35;41;38;
64229;PMS5003;50547;49.498;0.092;2022-11-12T08:17:04;41;38;
64229;PMS5003;50547;49.498;0.092;2022-11-12T08:19:33;40;36;
64229;PMS5003;50547;49.498;0.092;2022-11-12T08:22:02;41;38;
64229;PMS5003;50547;49.498;0.092;2022-11-12T08:24:32;41;38;
64229;PMS5003;50547;49.498;0.092;2022-11-12T08:27:01;51;45;
64229;PMS5003;50547;49.498;0.092;2022-11-12T08:29:30;44;43;
64229;PMS5003;50547;49.498;0.092;2022-11-12T08:31:59;44;43;
64229;PMS5003;50547;49.498;0.092;2022-11-12T08:34:28;55;48;
64229;PMS5003;50547;49.498;0.092;2022-11-12T08:36:57;53;46;
64229;PMS5003;50547;49.498;0.092;2022-11-12T08:39:26;57;50;
64229;PMS5003;50547;49.498;0.092;2022-11-12T08:41:55;60;53;
64229;PMS5003;50547;49.498;0.092;2022-11-12T08:44:25;55;48;
64229;PMS5003;50547;49.498;0.092;2022-11-12T08:46:54;80;68;
64229;PMS5003;50547;49.498;0.092;2022-11-12T08:49:23;53;46;
64229;PMS5003;50547;49.498;0.092;2022-11-12T08:51:52;44;43;
64229;PMS5003;50547;49.498;0.092;2022-11-12T08:54:21;41;38;
64229;PMS5003;50547;49.498;0.092;2022-11-12T08:56:51;41;38;
64229;PMS5003;50547;49.498;0.092;2022-11-12T08:59:20;37;33;
64229;PMS5003;50547;49.498;0.092;2022-11-12T09:01:49;36;31;
64229;PMS5003;50547;49.498;0.092;2022-11-12T09:04:18;36;31;
64229;PMS5003;50547;49.498;0.092;2022-11-12T09:06:47;37;33;
64229;PMS5003;50547;49.498;0.092;2022-11-12T09:09:16;41;38;
64229;PMS5003;50547;49.498;0.092;2022-11-12T09:11:46;38;35;
64229;PMS5003;50547;49.498;0.092;2022-11-12T09:14:15;42;40;
64229;PMS5003;50547;49.498;0.092;2022-11-12T09:16:44;71;61;
64229;PMS5003;50547;49.498;0.092;2022-11-12T09:19:13;69;60;
64229;PMS5003;50547;49.498;0.092;2022-11-12T09:21:42;85;71;
64229;PMS5003;50547;49.498;0.092;2022-11-12T09:24:11;57;50;
64229;PMS5003;50547;49.498;0.092;2022-11-12T09:26:42;41;38;
64229;PMS5003;50547;49.498;0.092;2022-11-12T09:29:11;41;38;
64229;PMS5003;50547;49.498;0.092;2022-11-12T09:31:41;44;43;
64229;PMS5003;50547;49.498;0.092;2022-11-12T09:34:10;41;38;
64229;PMS5003;50547;49.498;0.092;2022-11-12T09:36:39;58;51;
64229;PMS5003;50547;49.498;0.092;2022-11-12T09:39:09;55;48;
64229;PMS5003;50547;49.498;0.092;2022-11-12T09:41:38;66;56;
64229;PMS5003;50547;49.498;0.092;2022-11-12T09:44:10;55;48;
64229;PMS5003;50547;49.498;0.092;2022-11-12T09:46:42;44;43;
64229;PMS5003;50547;49.498;0.092;2022-11-12T09:49:16;40;36;
64229;PMS5003;50547;49.498;0.092;2022-11-12T09:51:48;41;38;
64229;PMS5003;50547;49.498;0.092;2022-11-12T09:54:21;41;38;
64229;PMS5003;50547;49.498;0.092;2022-11-12T09:56:52;41;38;
64229;PMS5003;50547;49.498;0.092;2022-11-12T09:59:22;37;33;
64229;PMS5003;50547;49.498;0.092;2022-11-12T10:01:56;41;38;
64229;PMS5003;50547;49.498;0.092;2022-11-12T10:04:36;40;36;
64229;PMS5003;50547;49.498;0.092;2022-11-12T10:07:15;37;33;
64229;PMS5003;50547;49.498;0.092;2022-11-12T10:09:55;45;43;
64229;PMS5003;50547;49.498;0.092;2022-11-12T10:12:33;51;45;
64229;PMS5003;50547;49.498;0.092;2022-11-12T10:15:19;44;43;
64229;PMS5003;50547;49.498;0.092;2022-11-12T10:18:00;58;51;
64229;PMS5003;50547;49.498;0.092;2022-11-12T10:20:35;51;45;
64229;PMS5003;50547;49.498;0.092;2022-11-12T10:23:13;42;40;
64229;PMS5003;50547;49.498;0.092;2022-11-12T10:25:46;41;38;
64229;PMS5003;50547;49.498;0.092;2022-11-12T10:28:19;38;35;
64229;PMS5003;50547;49.498;0.092;2022-11-12T10:30:55;41;38;
64229;PMS5003;50547;49.498;0.092;2022-11-12T10:33:28;42;40;
64229;PMS5003;50547;49.498;0.092;2022-11-12T10:36:09;45;43;
64229;PMS5003;50547;49.498;0.092;2022-11-12T10:38:45;51;45;
64229;PMS5003;50547;49.498;0.092;2022-11-12T10:41:19;55;48;
64229;PMS5003;50547;49.498;0.092;2022-11-12T10:43:54;41;38;
64229;PMS5003;50547;49.498;0.092;2022-11-12T10:46:25;35;30;
64229;PMS5003;50547;49.498;0.092;2022-11-12T10:48:56;35;30;
64229;PMS5003;50547;49.498;0.092;2022-11-12T10:51:29;34;29;
64229;PMS5003;50547;49.498;0.092;2022-11-12T10:54:04;30;26;
64229;PMS5003;50547;49.498;0.092;2022-11-12T10:56:53;33;28;
64229;PMS5003;50547;49.498;0.092;2022-11-12T10:59:23;34;29;
64229;PMS5003;50547;49.498;0.092;2022-11-12T11:01:53;34;29;
64229;PMS5003;50547;49.498;0.092;2022-11-12T11:04:27;36;31;
64229;PMS5003;50547;49.498;0.092;2022-11-12T11:06:59;34;29;
64229;PMS5003;50547;49.498;0.092;2022-11-12T11:09:32;36;31;
64229;PMS5003;50547;49.498;0.092;2022-11-12T11:12:02;30;26;
64229;PMS5003;50547;49.498;0.092;2022-11-12T11:14:35;27;23;
64229;PMS5003;50547;49.498;0.092;2022-11-12T11:17:05;26;23;
64229;PMS5003;50547;49.498;0.092;2022-11-12T11:19:43;26;23;
64229;PMS5003;50547;49.498;0.092;2022-11-12T11:22:17;24;21;
64229;PMS5003;50547;49.498;0.092;2022-11-12T11:25:27;24;21;
64229;PMS5003;50547;49.498;0.092;2022-11-12T11:28:02;22;19;
64229;PMS5003;50547;49.498;0.092;2022-11-12T11:30:37;22;19;
64229;PMS5003;50547;49.498;0.092;2022-11-12T11:33:19;20;17;
64229;PMS5003;50547;49.498;0.092;2022-11-12T11:35:55;20;17;
64229;PMS5003;50547;49.498;0.092;2022-11-12T11:38:34;20;17;
64229;PMS5003;50547;49.498;0.092;2022-11-12T11:41:19;20;17;
64229;PMS5003;50547;49.498;0.092;2022-11-12T11:44:04;24;21;
64229;PMS5003;50547;49.498;0.092;2022-11-12T11:46:45;23;20;
64229;PMS5003;50547;49.498;0.092;2022-11-12T11:49:31;22;19;
64229;PMS5003;50547;49.498;0.092;2022-11-12T11:52:13;20;17;
64229;PMS5003;50547;49.498;0.092;2022-11-12T11:55:03;20;17;
64229;PMS5003;50547;49.498;0.092;2022-11-12T11:57:43;21;18;
64229;PMS5003;50547;49.498;0.092;2022-11-12T12:00:23;21;18;
64229;PMS5003;50547;49.498;0.092;2022-11-12T12:03:03;21;18;
64229;PMS5003;50547;49.498;0.092;2022-11-12T12:05:42;19;17;
64229;PMS5003;50547;49.498;0.092;2022-11-12T12:08:21;19;17;
64229;PMS5003;50547;49.498;0.092;2022-11-12T12:10:55;18;16;
64229;PMS5003;50547;49.498;0.092;2022-11-12T12:13:31;18;16;
64229;PMS5003;50547;49.498;0.092;2022-11-12T12:16:12;18;16;
64229;PMS5003;50547;49.498;0.092;2022-11-12T12:18:51;18;16;
64229;PMS5003;50547;49.498;0.092;2022-11-12T12:21:24;18;16;
64229;PMS5003;50547;49.498;0.092;2022-11-12T12:23:59;18;16;
64229;PMS5003;50547;49.498;0.092;2022-11-12T12:26:34;17;15;
64229;PMS5003;50547;49.498;0.092;2022-11-12T12:29:10;18;16;
64229;PMS5003;50547;49.498;0.092;2022-11-12T12:31:45;15;14;
64229;PMS5003;50547;49.498;0.092;2022-11-12T12:34:20;17;15;
64229;PMS5003;50547;49.498;0.092;2022-11-12T12:36:55;19;17;
64229;PMS5003;50547;49.498;0.092;2022-11-12T12:39:34;19;17;
64229;PMS5003;50547;49.498;0.092;2022-11-12T12:42:09;20;17;
64229;PMS5003;50547;49.498;0.092;2022-11-12T12:44:44;21;18;
64229;PMS5003;50547;49.498;0.092;2022-11-12T12:47:16;20;17;
64229;PMS5003;50547;49.498;0.092;2022-11-12T12:49:45;20;17;
64229;PMS5003;50547;49.498;0.092;2022-11-12T12:52:17;25;22;
64229;PMS5003;50547;49.498;0.092;2022-11-12T12:55:35;23;20;
64229;PMS5003;50547;49.498;0.092;2022-11-12T12:58:15;24;21;
64229;PMS5003;50547;49.498;0.092;2022-11-12T13:00:48;23;20;
64229;PMS5003;50547;49.498;0.092;2022-11-12T13:03:56;23;20;
64229;PMS5003;50547;49.498;0.092;2022-11-12T13:06:28;22;19;
64229;PMS5003;50547;49.498;0.092;2022-11-12T13:09:02;24;21;
64229;PMS5003;50547;49.498;0.092;2022-11-12T13:11:49;23;20;
64229;PMS5003;50547;49.498;0.092;2022-11-12T13:15:06;23;20;
64229;PMS5003;50547;49.498;0.092;2022-11-12T13:17:44;24;21;
64229;PMS5003;50547;49.498;0.092;2022-11-12T13:23:09;25;22;
64229;PMS5003;50547;49.498;0.092;2022-11-12T13:26:43;24;21;
64229;PMS5003;50547;49.498;0.092;2022-11-12T13:29:17;23;20;
64229;PMS5003;50547;49.498;0.092;2022-11-12T13:32:24;23;20;
64229;PMS5003;50547;49.498;0.092;2022-11-12T13:35:30;22;19;
64229;PMS5003;50547;49.498;0.092;2022-11-12T13:38:03;23;20;
64229;PMS5003;50547;49.498;0.092;2022-11-12T13:40:38;23;20;
64229;PMS5003;50547;49.498;0.092;2022-11-12T13:43:15;22;19;
64229;PMS5003;50547;49.498;0.092;2022-11-12T13:45:54;22;19;
64229;PMS5003;50547;49.498;0.092;2022-11-12T13:48:26;22;19;
64229;PMS5003;50547;49.498;0.092;2022-11-12T13:51:00;21;18;
64229;PMS5003;50547;49.498;0.092;2022-11-12T13:53:32;25;22;
64229;PMS5003;50547;49.498;0.092;2022-11-12T13:56:01;25;22;
64229;PMS5003;50547;49.498;0.092;2022-11-12T13:58:30;23;20;
64229;PMS5003;50547;49.498;0.092;2022-11-12T14:01:01;20;17;
64229;PMS5003;50547;49.498;0.092;2022-11-12T14:03:32;20;17;
64229;PMS5003;50547;49.498;0.092;2022-11-12T14:06:16;20;17;
64229;PMS5003;50547;49.498;0.092;2022-11-12T14:08:56;20;17;
64229;PMS5003;50547;49.498;0.092;2022-11-12T14:11:47;20;17;
64229;PMS5003;50547;49.498;0.092;2022-11-12T14:14:47;20;17;
64229;PMS5003;50547;49.498;0.092;2022-11-12T14:17:41;20;17;
64229;PMS5003;50547;49.498;0.092;2022-11-12T14:20:22;19;17;
64229;PMS5003;50547;49.498;0.092;2022-11-12T14:22:54;20;17;
64229;PMS5003;50547;49.498;0.092;2022-11-12T14:25:24;20;17;
64229;PMS5003;50547;49.498;0.092;2022-11-12T14:27:54;20;17;
64229;PMS5003;50547;49.498;0.092;2022-11-12T14:30:25;19;17;
64229;PMS5003;50547;49.498;0.092;2022-11-12T14:32:57;21;18;
64229;PMS5003;50547;49.498;0.092;2022-11-12T14:35:30;22;19;
64229;PMS5003;50547;49.498;0.092;2022-11-12T14:38:09;22;19;
64229;PMS5003;50547;49.498;0.092;2022-11-12T14:40:42;21;18;
64229;PMS5003;50547;49.498;0.092;2022-11-12T14:43:18;22;19;
64229;PMS5003;50547;49.498;0.092;2022-11-12T14:45:52;22;19;
64229;PMS5003;50547;49.498;0.092;2022-11-12T14:48:23;21;18;
64229;PMS5003;50547;49.498;0.092;2022-11-12T14:50:55;20;17;
64229;PMS5003;50547;49.498;0.092;2022-11-12T14:53:29;21;18;
64229;PMS5003;50547;49.498;0.092;2022-11-12T14:56:00;20;17;
64229;PMS5003;50547;49.498;0.092;2022-11-12T14:58:32;20;17;
64229;PMS5003;50547;49.498;0.092;2022-11-12T15:01:16;19;17;
64229;PMS5003;50547;49.498;0.092;2022-11-12T15:03:47;20;17;
64229;PMS5003;50547;49.498;0.092;2022-11-12T15:06:18;20;17;
64229;PMS5003;50547;49.498;0.092;2022-11-12T15:08:55;20;17;
64229;PMS5003;50547;49.498;0.092;2022-11-12T15:11:25;20;17;
64229;PMS5003;50547;49.498;0.092;2022-11-12T15:13:55;21;18;
64229;PMS5003;50547;49.498;0.092;2022-11-12T15:16:27;22;19;
64229;PMS5003;50547;49.498;0.092;2022-11-12T15:19:07;22;19;
64229;PMS5003;50547;49.498;0.092;2022-11-12T15:21:45;21;18;
64229;PMS5003;50547;49.498;0.092;2022-11-12T15:24:15;20;17;
64229;PMS5003;50547;49.498;0.092;2022-11-12T15:26:48;20;17;
64229;PMS5003;50547;49.498;0.092;2022-11-12T15:29:21;18;16;
64229;PMS5003;50547;49.498;0.092;2022-11-12T15:31:55;19;17;
64229;PMS5003;50547;49.498;0.092;2022-11-12T15:34:27;18;16;
64229;PMS5003;50547;49.498;0.092;2022-11-12T15:37:02;18;16;
64229;PMS5003;50547;49.498;0.092;2022-11-12T15:39:37;18;16;
64229;PMS5003;50547;49.498;0.092;2022-11-12T15:42:13;18;16;
64229;PMS5003;50547;49.498;0.092;2022-11-12T15:44:44;18;16;
64229;PMS5003;50547;49.498;0.092;2022-11-12T15:47:15;18;16;
64229;PMS5003;50547;49.498;0.092;2022-11-12T15:49:47;19;17;
64229;PMS5003;50547;49.498;0.092;2022-11-12T15:52:18;18;16;
64229;PMS5003;50547;49.498;0.092;2022-11-12T15:54:48;19;17;
64229;PMS5003;50547;49.498;0.092;2022-11-12T15:57:19;19;17;
64229;PMS5003;50547;49.498;0.092;2022-11-12T15:59:53;20;17;
64229;PMS5003;50547;49.498;0.092;2022-11-12T16:02:24;20;17;
64229;PMS5003;50547;49.498;0.092;2022-11-12T16:04:53;20;17;
64229;PMS5003;50547;49.498;0.092;2022-11-12T16:07:20;20;17;
64229;PMS5003;50547;49.498;0.092;2022-11-12T16:09:49;20;17;
64229;PMS5003;50547;49.498;0.092;2022-11-12T16:12:18;20;17;
64229;PMS5003;50547;49.498;0.092;2022-11-12T16:14:44;20;17;
64229;PMS5003;50547;49.498;0.092;2022-11-12T16:17:14;22;19;
64229;PMS5003;50547;49.498;0.092;2022-11-12T16:19:47;20;17;
64229;PMS5003;50547;49.498;0.092;2022-11-12T16:22:16;21;18;
64229;PMS5003;50547;49.498;0.092;2022-11-12T16:24:45;20;17;
64229;PMS5003;50547;49.498;0.092;2022-11-12T16:27:15;22;19;
64229;PMS5003;50547;49.498;0.092;2022-11-12T16:29:44;22;19;
64229;PMS5003;50547;49.498;0.092;2022-11-12T16:32:11;22;19;
64229;PMS5003;50547;49.498;0.092;2022-11-12T16:34:51;22;19;
64229;PMS5003;50547;49.498;0.092;2022-11-12T16:37:20;22;19;
64229;PMS5003;50547;49.498;0.092;2022-11-12T16:39:49;22;19;
64229;PMS5003;50547;49.498;0.092;2022-11-12T16:42:19;23;20;
64229;PMS5003;50547;49.498;0.092;2022-11-12T16:44:48;23;20;
64229;PMS5003;50547;49.498;0.092;2022-11-12T16:47:18;23;20;
64229;PMS5003;50547;49.498;0.092;2022-11-12T16:49:47;24;21;
64229;PMS5003;50547;49.498;0.092;2022-11-12T16:52:13;23;20;
64229;PMS5003;50547;49.498;0.092;2022-11-12T16:54:42;24;21;
64229;PMS5003;50547;49.498;0.092;2022-11-12T16:57:11;25;22;
64229;PMS5003;50547;49.498;0.092;2022-11-12T16:59:40;25;22;
64229;PMS5003;50547;49.498;0.092;2022-11-12T17:02:09;25;22;
64229;PMS5003;50547;49.498;0.092;2022-11-12T17:04:41;27;23;